Intl Falls, Minnesota
Current Conditions -  °F | °C
As of 6:55 PM on Friday 28 Nov 2014 (Local Time) from KINL Reporting Station
Overcast Overcast  
Wind Chill:   Ceiling: 7500
Heat Index: 16°   Visibility: 10mi
Dew Point:   Wind: 9mph
Humidity: 74%   Direction: 120°ESE
Pressure: 29.78"   Gusts: NA
Location:  48.5229°N, 93.3185°W
Report Text: KINL 290055Z AUTO 12008KT 10SM SCT027 OVC075 M09/M13 A2978 RMK AO2 SLP114 T10891128 $
Loading
Personal Weather Stations






























Interactive Weather Map New forecast layout! Learn more

10-Day Weather Forecast

Advertisements
Track Severe Weather on mobile